createdAt,value
2023-01-31T00:01:51.067Z,79.46
2023-01-31T00:04:18.921Z,79.15
2023-01-31T00:06:50.936Z,79.29
2023-01-31T00:09:19.491Z,78.93
2023-01-31T00:11:48.741Z,78.44
2023-01-31T00:14:19.663Z,78.13
2023-01-31T00:16:48.256Z,78.30
2023-01-31T00:19:16.240Z,77.58
2023-01-31T00:21:45.829Z,77.41
2023-01-31T00:24:14.192Z,77.57
2023-01-31T00:26:42.401Z,78.34
2023-01-31T00:29:11.977Z,78.46
2023-01-31T00:31:40.316Z,78.21
2023-01-31T00:34:08.909Z,77.97
2023-01-31T00:36:37.662Z,78.24
2023-01-31T00:39:07.392Z,78.14
2023-01-31T00:41:37.463Z,78.69
2023-01-31T00:44:06.728Z,78.38
2023-01-31T00:46:36.759Z,77.79
2023-01-31T00:49:05.605Z,78.06
2023-01-31T00:51:33.786Z,78.81
2023-01-31T00:54:01.707Z,79.50
2023-01-31T00:56:30.155Z,80.27
2023-01-31T00:58:58.646Z,80.42
2023-01-31T01:01:28.923Z,81.00
2023-01-31T01:03:59.255Z,80.92
2023-01-31T01:06:28.005Z,80.80
2023-01-31T01:08:57.412Z,80.83
2023-01-31T01:11:28.104Z,80.67
2023-01-31T01:13:57.104Z,79.84
2023-01-31T01:16:27.134Z,79.20
2023-01-31T01:18:56.026Z,78.67
2023-01-31T01:21:28.190Z,77.58
2023-01-31T01:23:58.820Z,76.77
2023-01-31T01:26:28.522Z,75.91
2023-01-31T01:28:58.383Z,75.51
2023-01-31T01:31:30.628Z,75.66
2023-01-31T01:34:00.538Z,75.78
2023-01-31T01:36:30.242Z,75.78
2023-01-31T01:38:58.288Z,75.50
2023-01-31T01:41:26.502Z,75.39
2023-01-31T01:43:56.621Z,75.26
2023-01-31T01:46:29.304Z,75.23
2023-01-31T01:49:01.926Z,74.91
2023-01-31T01:51:33.708Z,74.79
2023-01-31T01:54:06.051Z,74.40
2023-01-31T01:56:40.227Z,74.68
2023-01-31T01:59:10.965Z,74.77
2023-01-31T02:01:40.457Z,74.87
2023-01-31T02:04:15.110Z,74.94
2023-01-31T02:06:45.936Z,75.03
2023-01-31T02:09:26.761Z,74.93
2023-01-31T02:11:54.652Z,75.26
2023-01-31T02:14:22.706Z,75.19
2023-01-31T02:16:50.729Z,75.81
2023-01-31T02:19:30.291Z,75.69
2023-01-31T02:22:15.647Z,75.42
2023-01-31T02:25:38.381Z,75.78
2023-01-31T02:28:42.547Z,75.28
2023-01-31T02:31:43.822Z,75.22
2023-01-31T02:34:18.984Z,75.38
2023-01-31T02:37:02.388Z,75.60
2023-01-31T02:39:37.489Z,75.70
2023-01-31T02:42:15.171Z,75.78
2023-01-31T02:45:01.127Z,75.51
2023-01-31T02:47:41.993Z,75.37
2023-01-31T02:50:20.685Z,75.57
2023-01-31T02:52:57.457Z,75.39
2023-01-31T02:55:48.605Z,75.17
2023-01-31T02:58:20.981Z,75.38
2023-01-31T03:00:50.766Z,75.13
2023-01-31T03:03:23.453Z,75.01
2023-01-31T03:06:59.689Z,74.74
2023-01-31T03:09:47.206Z,74.85
2023-01-31T03:12:29.324Z,75.06
2023-01-31T03:15:10.871Z,75.12
2023-01-31T03:17:57.353Z,76.04
2023-01-31T03:20:36.383Z,76.91
2023-01-31T03:23:12.744Z,77.08
2023-01-31T03:25:41.257Z,77.44
2023-01-31T03:28:15.504Z,78.11
2023-01-31T03:30:51.050Z,78.35
2023-01-31T03:33:24.934Z,78.69
2023-01-31T03:35:59.082Z,79.50
2023-01-31T03:38:35.239Z,80.49
2023-01-31T03:41:09.292Z,80.02
2023-01-31T03:43:42.574Z,80.62
2023-01-31T03:46:16.910Z,81.25
2023-01-31T03:48:50.824Z,80.73
2023-01-31T03:51:23.502Z,81.23
2023-01-31T03:53:55.295Z,82.08
2023-01-31T03:56:29.217Z,81.68
2023-01-31T03:59:00.865Z,81.68
2023-01-31T04:01:32.790Z,81.84
2023-01-31T04:04:06.529Z,82.34
2023-01-31T04:06:35.614Z,82.01
2023-01-31T04:09:05.422Z,82.62
2023-01-31T04:11:38.360Z,82.47
2023-01-31T04:14:06.781Z,81.93
2023-01-31T04:16:34.820Z,81.46
2023-01-31T04:19:02.787Z,81.02
2023-01-31T04:21:30.769Z,80.22
2023-01-31T04:23:58.753Z,80.03
2023-01-31T04:26:28.085Z,79.87
2023-01-31T04:28:55.938Z,79.52
2023-01-31T04:31:23.972Z,78.88
2023-01-31T04:33:51.814Z,78.35
2023-01-31T04:36:19.715Z,78.04
2023-01-31T04:38:47.615Z,77.99
2023-01-31T04:41:15.467Z,77.96
2023-01-31T04:43:44.839Z,78.00
2023-01-31T04:46:12.735Z,77.90
2023-01-31T04:48:41.405Z,77.94
2023-01-31T04:51:09.769Z,78.11
2023-01-31T04:53:37.770Z,78.33
2023-01-31T04:56:06.822Z,78.06
2023-01-31T04:58:34.726Z,77.55
2023-01-31T05:01:04.123Z,77.58
2023-01-31T05:03:32.093Z,77.09
2023-01-31T05:06:00.236Z,77.38
2023-01-31T05:08:29.443Z,77.21
2023-01-31T05:11:03.012Z,77.04
2023-01-31T05:13:32.762Z,76.26
2023-01-31T05:16:01.049Z,75.14
2023-01-31T05:18:30.285Z,75.03
2023-01-31T05:20:58.117Z,72.98
2023-01-31T05:23:25.986Z,70.96
2023-01-31T05:25:53.863Z,70.47
2023-01-31T05:28:21.845Z,69.14
2023-01-31T05:30:49.811Z,69.17
2023-01-31T05:33:19.518Z,68.94
2023-01-31T05:35:48.937Z,68.67
2023-01-31T05:38:16.973Z,68.24
2023-01-31T05:40:45.395Z,68.04
2023-01-31T05:43:13.267Z,67.66
2023-01-31T05:45:41.191Z,68.29
2023-01-31T05:48:09.128Z,67.61
2023-01-31T05:50:36.969Z,68.01
2023-01-31T05:53:12.119Z,68.42
2023-01-31T05:55:39.958Z,68.22
2023-01-31T05:58:07.816Z,68.72
2023-01-31T06:00:35.640Z,68.86
2023-01-31T06:03:03.542Z,69.21
2023-01-31T06:05:32.063Z,68.71
2023-01-31T06:08:00.331Z,68.13
2023-01-31T06:10:29.662Z,67.39
2023-01-31T06:12:57.583Z,67.17
2023-01-31T06:15:25.523Z,66.45
2023-01-31T06:17:53.432Z,66.58
2023-01-31T06:20:23.761Z,66.24
2023-01-31T06:22:51.590Z,66.34
2023-01-31T06:25:19.746Z,65.96
2023-01-31T06:27:49.095Z,66.59
2023-01-31T06:30:17.278Z,66.31
2023-01-31T06:32:45.172Z,66.31
2023-01-31T06:35:13.028Z,66.68
2023-01-31T06:37:40.893Z,65.87
2023-01-31T06:40:09.507Z,65.79
2023-01-31T06:42:37.446Z,65.82
2023-01-31T06:45:07.737Z,66.08
2023-01-31T06:47:36.059Z,65.45
2023-01-31T06:50:04.156Z,65.46
2023-01-31T06:52:31.995Z,64.70
2023-01-31T06:54:59.835Z,65.11
2023-01-31T06:57:27.714Z,65.20
2023-01-31T06:59:55.532Z,64.88
2023-01-31T07:02:24.791Z,65.29
2023-01-31T07:04:52.969Z,64.52
2023-01-31T07:07:20.849Z,64.73
2023-01-31T07:09:48.681Z,64.52
2023-01-31T07:12:16.492Z,63.47
2023-01-31T07:14:44.365Z,63.01
2023-01-31T07:17:12.259Z,62.65
2023-01-31T07:19:41.902Z,63.08
2023-01-31T07:22:09.853Z,63.75
2023-01-31T07:24:37.784Z,62.74
2023-01-31T07:27:05.748Z,63.04
2023-01-31T07:29:33.753Z,63.36
2023-01-31T07:32:01.748Z,63.83
2023-01-31T07:34:30.138Z,63.98
2023-01-31T07:37:01.244Z,63.93
2023-01-31T07:39:30.082Z,63.74
2023-01-31T07:41:58.170Z,63.74
2023-01-31T07:44:26.201Z,63.85
2023-01-31T07:46:56.393Z,63.73
2023-01-31T07:49:24.220Z,63.85
2023-01-31T07:51:52.053Z,64.36
2023-01-31T07:54:21.347Z,64.09
2023-01-31T07:56:49.207Z,64.19
2023-01-31T07:59:17.672Z,64.62
2023-01-31T08:02:02.952Z,64.19
2023-01-31T08:04:30.951Z,64.25
2023-01-31T08:06:59.740Z,64.22
2023-01-31T08:09:29.540Z,64.16
2023-01-31T08:11:57.486Z,63.94
2023-01-31T08:14:26.245Z,63.54
2023-01-31T08:16:54.695Z,64.09
2023-01-31T08:19:23.008Z,63.34
2023-01-31T08:21:51.108Z,63.45
2023-01-31T08:24:19.142Z,63.79
2023-01-31T08:26:48.452Z,63.52
2023-01-31T08:29:16.631Z,63.09
2023-01-31T08:31:44.784Z,62.97
2023-01-31T08:34:13.127Z,62.99
2023-01-31T08:36:41.034Z,62.41
2023-01-31T08:39:09.169Z,61.74
2023-01-31T08:41:38.582Z,61.00
2023-01-31T08:44:08.098Z,61.35
2023-01-31T08:46:37.698Z,61.15
2023-01-31T08:49:07.624Z,61.28
2023-01-31T08:51:36.026Z,61.58
2023-01-31T08:54:05.029Z,61.38
2023-01-31T08:56:33.863Z,61.02
2023-01-31T08:59:01.797Z,60.76
2023-01-31T09:01:32.695Z,60.75
2023-01-31T09:04:00.646Z,60.85
2023-01-31T09:06:30.044Z,61.31
2023-01-31T09:08:59.009Z,60.97
2023-01-31T09:11:29.039Z,60.68
2023-01-31T09:13:57.342Z,59.95
2023-01-31T09:16:25.322Z,60.16
2023-01-31T09:18:56.061Z,60.14
2023-01-31T09:21:24.936Z,59.15
2023-01-31T09:23:57.471Z,60.32
2023-01-31T09:26:25.794Z,59.39
2023-01-31T09:28:53.631Z,58.60
2023-01-31T09:31:22.600Z,57.40
2023-01-31T09:33:50.738Z,58.17
2023-01-31T09:36:24.887Z,58.24
2023-01-31T09:38:56.442Z,58.34
2023-01-31T09:41:31.283Z,57.85
2023-01-31T09:44:03.445Z,57.83
2023-01-31T09:46:37.310Z,57.67
2023-01-31T09:49:10.439Z,57.49
2023-01-31T09:51:40.772Z,58.14
2023-01-31T09:54:18.974Z,58.23
2023-01-31T09:56:55.451Z,57.96
2023-01-31T09:59:26.413Z,57.33
2023-01-31T10:02:04.255Z,56.20
2023-01-31T10:04:58.858Z,54.86
2023-01-31T10:07:33.249Z,55.73
2023-01-31T10:10:06.570Z,56.58
2023-01-31T10:12:41.891Z,54.84
2023-01-31T10:15:19.039Z,55.46
2023-01-31T10:17:51.872Z,55.22
2023-01-31T10:20:23.817Z,54.11
2023-01-31T10:22:59.473Z,53.11
2023-01-31T10:25:29.362Z,53.12
2023-01-31T10:28:02.343Z,52.29
2023-01-31T10:30:41.382Z,52.63
2023-01-31T10:33:18.499Z,52.84
2023-01-31T10:35:48.132Z,52.13
2023-01-31T10:38:23.666Z,51.94
2023-01-31T10:40:58.784Z,51.29
2023-01-31T10:43:34.597Z,51.50
2023-01-31T10:46:03.316Z,51.34
2023-01-31T10:48:31.499Z,52.21
2023-01-31T10:51:09.139Z,52.07
2023-01-31T10:53:52.766Z,52.24
2023-01-31T10:56:29.353Z,53.07
2023-01-31T10:58:59.464Z,53.84
2023-01-31T11:01:27.520Z,54.57
2023-01-31T11:03:57.718Z,55.04
2023-01-31T11:06:25.981Z,55.34
2023-01-31T11:08:58.533Z,56.38
2023-01-31T11:11:27.983Z,57.15
2023-01-31T11:14:00.749Z,58.55
2023-01-31T11:16:32.048Z,59.61
2023-01-31T11:19:02.568Z,60.55
2023-01-31T11:21:32.908Z,61.23
2023-01-31T11:24:05.966Z,62.25
2023-01-31T11:26:37.755Z,61.79
2023-01-31T11:29:11.849Z,61.70
2023-01-31T11:31:45.557Z,62.62
2023-01-31T11:34:22.314Z,62.56
2023-01-31T11:36:50.251Z,62.04
2023-01-31T11:39:29.452Z,62.32
2023-01-31T11:41:57.272Z,61.40
2023-01-31T11:44:25.312Z,61.30
2023-01-31T11:46:55.350Z,59.66
2023-01-31T11:49:29.535Z,58.12
2023-01-31T11:51:59.072Z,58.21
2023-01-31T11:54:31.628Z,57.57
2023-01-31T11:57:00.918Z,56.48
2023-01-31T11:59:31.616Z,56.58
2023-01-31T12:02:02.073Z,57.37
2023-01-31T12:04:33.790Z,57.49
2023-01-31T12:07:04.961Z,58.50
2023-01-31T12:09:43.863Z,58.14
2023-01-31T12:12:24.913Z,58.65
2023-01-31T12:14:56.210Z,58.88
2023-01-31T12:17:24.292Z,59.74
2023-01-31T12:20:21.330Z,59.33
2023-01-31T12:23:03.577Z,59.31
2023-01-31T12:25:56.697Z,59.66
2023-01-31T12:28:37.655Z,59.29
2023-01-31T12:31:20.637Z,59.97
2023-01-31T12:34:03.729Z,59.78
2023-01-31T12:36:48.325Z,59.44
2023-01-31T12:39:32.969Z,59.25
2023-01-31T12:42:24.245Z,58.61
2023-01-31T12:45:06.542Z,58.11
2023-01-31T12:48:13.522Z,57.69
2023-01-31T12:50:49.027Z,57.99
2023-01-31T12:53:42.154Z,58.73
2023-01-31T12:56:27.402Z,59.19
2023-01-31T12:59:15.417Z,60.50
2023-01-31T13:01:51.530Z,61.31
2023-01-31T13:04:36.864Z,62.83
2023-01-31T13:07:09.054Z,63.74
2023-01-31T13:09:38.758Z,64.78
2023-01-31T13:12:10.604Z,65.87
2023-01-31T13:14:44.126Z,66.40
2023-01-31T13:17:15.641Z,66.38
2023-01-31T13:19:51.253Z,66.50
2023-01-31T13:22:23.851Z,67.04
2023-01-31T13:24:57.120Z,67.75
2023-01-31T13:27:30.124Z,67.66
2023-01-31T13:30:04.911Z,68.09
2023-01-31T13:32:39.455Z,68.95
2023-01-31T13:35:17.833Z,69.92
2023-01-31T13:37:49.309Z,70.08
2023-01-31T13:40:20.834Z,70.61
2023-01-31T13:42:49.046Z,71.44
2023-01-31T13:45:25.228Z,71.83
2023-01-31T13:47:59.487Z,71.96
2023-01-31T13:50:36.595Z,72.25
2023-01-31T13:53:06.350Z,72.62
2023-01-31T13:55:39.213Z,73.18
2023-01-31T13:58:10.192Z,73.06
2023-01-31T14:00:42.894Z,72.95
2023-01-31T14:03:13.209Z,73.31
2023-01-31T14:06:08.042Z,73.58
2023-01-31T14:08:59.103Z,73.58
2023-01-31T14:11:34.833Z,73.79
2023-01-31T14:14:20.184Z,73.63
2023-01-31T14:16:52.459Z,73.66
2023-01-31T14:20:03.263Z,73.53
2023-01-31T14:22:34.910Z,73.69
2023-01-31T14:25:05.965Z,73.29
2023-01-31T14:27:38.130Z,73.06
2023-01-31T14:30:27.292Z,73.71
2023-01-31T14:33:15.460Z,73.43
2023-01-31T14:36:19.837Z,73.73
2023-01-31T14:39:12.199Z,73.41
2023-01-31T14:42:00.602Z,73.39
2023-01-31T14:44:42.918Z,73.37
2023-01-31T14:47:27.986Z,73.00
2023-01-31T14:50:18.800Z,72.45
2023-01-31T14:53:06.514Z,72.42
2023-01-31T14:55:45.959Z,72.12
2023-01-31T14:58:19.813Z,72.03
2023-01-31T15:00:54.342Z,72.18
2023-01-31T15:03:26.765Z,72.10
2023-01-31T15:06:07.164Z,71.93
2023-01-31T15:08:40.191Z,71.76
2023-01-31T15:11:14.078Z,71.53
2023-01-31T15:13:48.486Z,71.18
2023-01-31T15:16:20.890Z,70.57
2023-01-31T15:18:51.246Z,70.31
2023-01-31T15:21:26.455Z,69.82
2023-01-31T15:23:56.233Z,69.66
2023-01-31T15:26:28.431Z,69.36
2023-01-31T15:28:57.763Z,69.07
2023-01-31T15:31:32.156Z,68.83
2023-01-31T15:34:04.922Z,68.58
2023-01-31T15:36:38.319Z,68.32
2023-01-31T15:39:21.182Z,68.27
2023-01-31T15:41:49.198Z,68.28
2023-01-31T15:44:20.015Z,68.28
2023-01-31T15:46:49.271Z,68.05
2023-01-31T15:49:38.187Z,67.54
2023-01-31T15:52:15.374Z,66.99
2023-01-31T15:54:56.439Z,66.95
2023-01-31T15:57:27.299Z,66.32
2023-01-31T15:59:56.037Z,66.17
2023-01-31T16:02:28.749Z,65.99
2023-01-31T16:04:57.868Z,65.40
2023-01-31T16:07:31.718Z,65.39
2023-01-31T16:10:02.845Z,65.14
2023-01-31T16:12:32.782Z,64.94
2023-01-31T16:15:05.637Z,64.79
2023-01-31T16:17:33.891Z,64.97
2023-01-31T16:20:01.730Z,64.66
2023-01-31T16:22:32.645Z,64.79
2023-01-31T16:25:02.460Z,64.23
2023-01-31T16:27:36.925Z,63.94
2023-01-31T16:30:05.648Z,63.92
2023-01-31T16:32:37.709Z,63.80
2023-01-31T16:35:08.001Z,63.65
2023-01-31T16:37:38.920Z,63.50
2023-01-31T16:40:09.706Z,63.46
2023-01-31T16:42:39.256Z,63.78
2023-01-31T16:45:29.444Z,63.44
2023-01-31T16:48:16.875Z,62.57
2023-01-31T16:50:44.841Z,62.88
2023-01-31T16:53:26.330Z,62.82
2023-01-31T16:56:23.965Z,63.02
2023-01-31T16:58:55.092Z,62.75
2023-01-31T17:01:26.782Z,63.06
2023-01-31T17:04:17.807Z,63.02
2023-01-31T17:06:51.186Z,63.19
2023-01-31T17:09:23.477Z,62.50
2023-01-31T17:11:51.628Z,63.17
2023-01-31T17:14:19.518Z,63.69
2023-01-31T17:16:48.059Z,63.69
2023-01-31T17:19:16.174Z,63.65
2023-01-31T17:21:49.947Z,63.62
2023-01-31T17:24:19.927Z,63.59
2023-01-31T17:26:50.577Z,63.71
2023-01-31T17:29:19.384Z,63.61
2023-01-31T17:31:47.256Z,63.69
2023-01-31T17:34:16.283Z,63.76
2023-01-31T17:36:44.888Z,63.59
2023-01-31T17:39:12.922Z,63.17
2023-01-31T17:41:41.668Z,62.57
2023-01-31T17:44:14.683Z,63.04
2023-01-31T17:46:43.400Z,62.93
2023-01-31T17:49:11.867Z,62.61
2023-01-31T17:51:40.904Z,62.71
2023-01-31T17:54:08.904Z,63.22
2023-01-31T17:56:36.798Z,63.05
2023-01-31T17:59:05.818Z,62.95
2023-01-31T18:01:36.216Z,63.03
2023-01-31T18:04:05.326Z,63.51
2023-01-31T18:06:33.397Z,63.83
2023-01-31T18:09:06.993Z,64.46
2023-01-31T18:11:34.933Z,66.42
2023-01-31T18:14:04.039Z,68.17
2023-01-31T18:16:32.467Z,69.41
2023-01-31T18:19:01.857Z,69.93
2023-01-31T18:21:29.836Z,70.17
2023-01-31T18:23:58.930Z,70.04
2023-01-31T18:26:26.930Z,70.31
2023-01-31T18:28:57.271Z,70.35
2023-01-31T18:31:25.329Z,70.63
2023-01-31T18:33:53.236Z,70.89
2023-01-31T18:36:23.166Z,71.50
2023-01-31T18:38:52.024Z,71.42
2023-01-31T18:41:21.615Z,71.73
2023-01-31T18:43:50.527Z,71.97
2023-01-31T18:46:18.549Z,71.66
2023-01-31T18:48:46.815Z,71.72
2023-01-31T18:51:16.251Z,71.92
2023-01-31T18:53:48.677Z,72.55
2023-01-31T18:56:18.485Z,72.42
2023-01-31T18:58:49.350Z,72.70
2023-01-31T19:01:19.350Z,72.43
2023-01-31T19:03:49.981Z,72.58
2023-01-31T19:06:20.685Z,73.15
2023-01-31T19:08:51.017Z,73.13
2023-01-31T19:11:21.309Z,72.78
2023-01-31T19:13:49.738Z,72.92
2023-01-31T19:16:20.502Z,72.64
2023-01-31T19:18:49.105Z,73.45
2023-01-31T19:21:18.073Z,73.82
2023-01-31T19:23:46.815Z,73.72
2023-01-31T19:26:18.161Z,73.99
2023-01-31T19:28:48.347Z,73.83
2023-01-31T19:31:18.833Z,74.18
2023-01-31T19:33:50.223Z,74.37
2023-01-31T19:36:20.434Z,74.76
2023-01-31T19:38:48.415Z,74.84
2023-01-31T19:41:19.426Z,74.52
2023-01-31T19:43:49.099Z,74.92
2023-01-31T19:46:17.953Z,74.88
2023-01-31T19:48:46.196Z,75.56
2023-01-31T19:51:15.923Z,75.69
2023-01-31T19:53:45.290Z,75.60
2023-01-31T19:56:14.090Z,75.90
2023-01-31T19:58:43.485Z,76.55
2023-01-31T20:01:13.383Z,76.45
2023-01-31T20:03:41.414Z,76.69
2023-01-31T20:06:11.209Z,77.18
2023-01-31T20:08:39.166Z,77.51
2023-01-31T20:11:08.022Z,78.18
2023-01-31T20:13:36.708Z,78.31
2023-01-31T20:16:08.836Z,78.74
2023-01-31T20:18:38.196Z,79.07
2023-01-31T20:21:07.200Z,79.13
2023-01-31T20:23:35.324Z,79.02
2023-01-31T20:26:03.487Z,79.23
2023-01-31T20:28:31.403Z,79.15
2023-01-31T20:31:04.396Z,79.59
2023-01-31T20:33:34.164Z,79.07
2023-01-31T20:36:02.430Z,79.70
2023-01-31T20:38:30.826Z,80.32
2023-01-31T20:40:58.907Z,80.20
2023-01-31T20:43:27.699Z,80.17
2023-01-31T20:46:03.230Z,80.67
2023-01-31T20:48:31.259Z,80.34
2023-01-31T20:51:00.786Z,80.69
2023-01-31T20:53:29.709Z,80.05
2023-01-31T20:55:59.308Z,80.30
2023-01-31T20:58:28.613Z,79.98
2023-01-31T21:00:57.735Z,79.68
2023-01-31T21:03:26.016Z,79.61
2023-01-31T21:05:54.120Z,79.21
2023-01-31T21:08:23.403Z,78.96
2023-01-31T21:10:52.027Z,78.74
2023-01-31T21:13:21.305Z,78.51
2023-01-31T21:15:52.444Z,78.45
2023-01-31T21:18:21.216Z,78.37
2023-01-31T21:20:49.367Z,78.47
2023-01-31T21:23:17.201Z,78.73
2023-01-31T21:25:46.455Z,78.61
2023-01-31T21:28:14.405Z,78.19
2023-01-31T21:30:42.496Z,78.53
2023-01-31T21:33:10.425Z,78.84
2023-01-31T21:35:38.392Z,78.99
2023-01-31T21:38:06.214Z,78.60
2023-01-31T21:40:34.167Z,78.77
2023-01-31T21:43:02.481Z,78.60
2023-01-31T21:45:42.319Z,78.44
2023-01-31T21:48:30.681Z,78.56
2023-01-31T21:50:58.761Z,78.40
2023-01-31T21:53:29.055Z,78.28
2023-01-31T21:56:01.689Z,78.89
2023-01-31T21:58:30.995Z,78.70
2023-01-31T22:01:03.979Z,78.66
2023-01-31T22:03:31.978Z,78.56
2023-01-31T22:06:04.305Z,78.77
2023-01-31T22:08:32.507Z,79.13
2023-01-31T22:11:04.313Z,79.21
2023-01-31T22:13:33.717Z,79.27
2023-01-31T22:16:02.374Z,79.45
2023-01-31T22:18:31.101Z,79.17
2023-01-31T22:21:03.569Z,79.47
2023-01-31T22:23:32.162Z,79.57
2023-01-31T22:26:03.884Z,79.51
2023-01-31T22:28:33.226Z,78.93
2023-01-31T22:31:02.129Z,79.01
2023-01-31T22:33:30.572Z,78.31
2023-01-31T22:35:58.641Z,78.43
2023-01-31T22:38:26.520Z,77.70
2023-01-31T22:40:58.258Z,77.24
2023-01-31T22:43:27.090Z,76.79
2023-01-31T22:45:58.306Z,76.05
2023-01-31T22:48:27.046Z,75.69
2023-01-31T22:50:56.247Z,75.40
2023-01-31T22:53:24.622Z,75.62
2023-01-31T22:55:52.755Z,75.34
2023-01-31T22:58:20.881Z,75.31
2023-01-31T23:00:49.841Z,75.29
2023-01-31T23:03:19.118Z,75.07
2023-01-31T23:05:47.128Z,75.23
2023-01-31T23:08:15.997Z,75.36
2023-01-31T23:10:44.654Z,74.92
2023-01-31T23:13:13.025Z,75.13
2023-01-31T23:15:41.052Z,75.18
2023-01-31T23:18:09.295Z,74.78
2023-01-31T23:20:38.691Z,74.95
2023-01-31T23:23:06.614Z,74.81
2023-01-31T23:25:34.560Z,74.64
2023-01-31T23:28:03.281Z,74.49
2023-01-31T23:30:31.314Z,74.47
2023-01-31T23:32:59.239Z,74.72
2023-01-31T23:35:27.216Z,74.49
2023-01-31T23:37:57.012Z,74.49
2023-01-31T23:40:24.959Z,74.70
2023-01-31T23:42:52.832Z,74.70
2023-01-31T23:45:20.818Z,74.41
2023-01-31T23:47:50.319Z,74.71
2023-01-31T23:50:18.921Z,74.53
2023-01-31T23:52:46.965Z,74.17
2023-01-31T23:55:18.194Z,74.58
2023-01-31T23:57:46.124Z,74.33
